sensor_id;sensor_type;location;lat;lon;timestamp;P1;durP1;ratioP1;P2;durP2;ratioP2
6143;SDS011;3103;49.492;8.474;2023-03-04T00:02:17;44.43;;;21.47;;
6143;SDS011;3103;49.492;8.474;2023-03-04T00:04:44;47.27;;;22.20;;
6143;SDS011;3103;49.492;8.474;2023-03-04T00:07:10;41.17;;;21.67;;
6143;SDS011;3103;49.492;8.474;2023-03-04T00:09:44;42.37;;;20.33;;
6143;SDS011;3103;49.492;8.474;2023-03-04T00:12:11;36.33;;;19.97;;
6143;SDS011;3103;49.492;8.474;2023-03-04T00:14:38;43.23;;;22.00;;
6143;SDS011;3103;49.492;8.474;2023-03-04T00:17:06;39.90;;;21.20;;
6143;SDS011;3103;49.492;8.474;2023-03-04T00:19:33;41.73;;;21.50;;
6143;SDS011;3103;49.492;8.474;2023-03-04T00:22:01;43.43;;;21.10;;
6143;SDS011;3103;49.492;8.474;2023-03-04T00:24:30;40.33;;;20.73;;
6143;SDS011;3103;49.492;8.474;2023-03-04T00:26:57;42.30;;;20.10;;
6143;SDS011;3103;49.492;8.474;2023-03-04T00:29:24;39.90;;;21.70;;
6143;SDS011;3103;49.492;8.474;2023-03-04T00:31:50;43.70;;;21.10;;
6143;SDS011;3103;49.492;8.474;2023-03-04T00:34:17;40.17;;;19.97;;
6143;SDS011;3103;49.492;8.474;2023-03-04T00:36:44;40.90;;;21.40;;
6143;SDS011;3103;49.492;8.474;2023-03-04T00:39:11;44.17;;;21.10;;
6143;SDS011;3103;49.492;8.474;2023-03-04T00:41:39;45.83;;;22.33;;
6143;SDS011;3103;49.492;8.474;2023-03-04T00:44:06;47.63;;;21.80;;
6143;SDS011;3103;49.492;8.474;2023-03-04T00:46:33;41.63;;;21.13;;
6143;SDS011;3103;49.492;8.474;2023-03-04T00:49:00;45.60;;;22.37;;
6143;SDS011;3103;49.492;8.474;2023-03-04T00:51:27;48.17;;;20.47;;
6143;SDS011;3103;49.492;8.474;2023-03-04T00:53:53;51.37;;;21.47;;
6143;SDS011;3103;49.492;8.474;2023-03-04T00:56:20;49.17;;;22.87;;
6143;SDS011;3103;49.492;8.474;2023-03-04T00:58:47;49.63;;;20.87;;
6143;SDS011;3103;49.492;8.474;2023-03-04T01:01:14;49.27;;;21.97;;
6143;SDS011;3103;49.492;8.474;2023-03-04T01:03:41;48.37;;;22.43;;
6143;SDS011;3103;49.492;8.474;2023-03-04T01:06:08;43.47;;;21.80;;
6143;SDS011;3103;49.492;8.474;2023-03-04T01:08:37;50.53;;;22.43;;
6143;SDS011;3103;49.492;8.474;2023-03-04T01:11:04;46.57;;;21.77;;
6143;SDS011;3103;49.492;8.474;2023-03-04T01:13:31;47.77;;;21.80;;
6143;SDS011;3103;49.492;8.474;2023-03-04T01:15:59;46.07;;;22.87;;
6143;SDS011;3103;49.492;8.474;2023-03-04T01:18:26;48.53;;;21.87;;
6143;SDS011;3103;49.492;8.474;2023-03-04T01:20:54;47.50;;;21.57;;
6143;SDS011;3103;49.492;8.474;2023-03-04T01:23:21;45.87;;;21.97;;
6143;SDS011;3103;49.492;8.474;2023-03-04T01:25:47;43.23;;;20.27;;
6143;SDS011;3103;49.492;8.474;2023-03-04T01:28:14;47.20;;;21.43;;
6143;SDS011;3103;49.492;8.474;2023-03-04T01:30:41;49.37;;;21.73;;
6143;SDS011;3103;49.492;8.474;2023-03-04T01:33:08;49.00;;;21.13;;
6143;SDS011;3103;49.492;8.474;2023-03-04T01:35:34;50.23;;;22.57;;
6143;SDS011;3103;49.492;8.474;2023-03-04T01:38:01;45.67;;;22.27;;
6143;SDS011;3103;49.492;8.474;2023-03-04T01:40:30;48.67;;;22.00;;
6143;SDS011;3103;49.492;8.474;2023-03-04T01:42:57;43.10;;;21.80;;
6143;SDS011;3103;49.492;8.474;2023-03-04T01:45:25;46.53;;;21.87;;
6143;SDS011;3103;49.492;8.474;2023-03-04T01:47:52;49.17;;;22.53;;
6143;SDS011;3103;49.492;8.474;2023-03-04T01:50:33;47.53;;;22.57;;
6143;SDS011;3103;49.492;8.474;2023-03-04T01:53:01;43.93;;;20.73;;
6143;SDS011;3103;49.492;8.474;2023-03-04T01:55:29;48.10;;;21.37;;
6143;SDS011;3103;49.492;8.474;2023-03-04T01:57:57;47.93;;;21.17;;
6143;SDS011;3103;49.492;8.474;2023-03-04T02:02:56;55.03;;;23.37;;
6143;SDS011;3103;49.492;8.474;2023-03-04T02:05:25;51.07;;;21.67;;
6143;SDS011;3103;49.492;8.474;2023-03-04T02:07:53;51.80;;;22.63;;
6143;SDS011;3103;49.492;8.474;2023-03-04T02:10:21;44.43;;;20.90;;
6143;SDS011;3103;49.492;8.474;2023-03-04T02:12:50;52.23;;;22.70;;
6143;SDS011;3103;49.492;8.474;2023-03-04T02:15:17;43.00;;;19.77;;
6143;SDS011;3103;49.492;8.474;2023-03-04T02:17:44;50.27;;;22.97;;
6143;SDS011;3103;49.492;8.474;2023-03-04T02:20:33;45.20;;;22.50;;
6143;SDS011;3103;49.492;8.474;2023-03-04T02:23:13;48.63;;;22.60;;
6143;SDS011;3103;49.492;8.474;2023-03-04T02:25:49;46.40;;;21.23;;
6143;SDS011;3103;49.492;8.474;2023-03-04T02:28:32;52.67;;;21.67;;
6143;SDS011;3103;49.492;8.474;2023-03-04T02:30:59;47.63;;;22.17;;
6143;SDS011;3103;49.492;8.474;2023-03-04T02:33:27;49.90;;;21.83;;
6143;SDS011;3103;49.492;8.474;2023-03-04T02:35:54;51.70;;;21.70;;
6143;SDS011;3103;49.492;8.474;2023-03-04T02:38:21;42.83;;;21.53;;
6143;SDS011;3103;49.492;8.474;2023-03-04T02:40:48;52.03;;;21.10;;
6143;SDS011;3103;49.492;8.474;2023-03-04T02:43:18;46.73;;;22.10;;
6143;SDS011;3103;49.492;8.474;2023-03-04T02:45:47;48.67;;;21.47;;
6143;SDS011;3103;49.492;8.474;2023-03-04T02:48:17;47.93;;;23.83;;
6143;SDS011;3103;49.492;8.474;2023-03-04T02:50:46;50.77;;;23.53;;
6143;SDS011;3103;49.492;8.474;2023-03-04T02:53:16;45.90;;;21.63;;
6143;SDS011;3103;49.492;8.474;2023-03-04T02:55:44;46.33;;;21.83;;
6143;SDS011;3103;49.492;8.474;2023-03-04T02:58:12;48.10;;;21.87;;
6143;SDS011;3103;49.492;8.474;2023-03-04T03:00:39;45.27;;;21.43;;
6143;SDS011;3103;49.492;8.474;2023-03-04T03:03:07;51.70;;;22.30;;
6143;SDS011;3103;49.492;8.474;2023-03-04T03:05:35;48.57;;;21.57;;
6143;SDS011;3103;49.492;8.474;2023-03-04T03:08:04;43.53;;;20.87;;
6143;SDS011;3103;49.492;8.474;2023-03-04T03:10:31;55.67;;;22.97;;
6143;SDS011;3103;49.492;8.474;2023-03-04T03:12:58;47.70;;;23.70;;
6143;SDS011;3103;49.492;8.474;2023-03-04T03:15:25;44.70;;;21.10;;
6143;SDS011;3103;49.492;8.474;2023-03-04T03:17:53;46.93;;;21.27;;
6143;SDS011;3103;49.492;8.474;2023-03-04T03:20:20;56.57;;;24.00;;
6143;SDS011;3103;49.492;8.474;2023-03-04T03:22:47;47.40;;;21.83;;
6143;SDS011;3103;49.492;8.474;2023-03-04T03:25:15;48.93;;;22.83;;
6143;SDS011;3103;49.492;8.474;2023-03-04T03:27:42;54.63;;;22.83;;
6143;SDS011;3103;49.492;8.474;2023-03-04T03:30:11;50.43;;;22.80;;
6143;SDS011;3103;49.492;8.474;2023-03-04T03:32:39;53.53;;;23.17;;
6143;SDS011;3103;49.492;8.474;2023-03-04T03:35:06;54.53;;;23.27;;
6143;SDS011;3103;49.492;8.474;2023-03-04T03:37:33;49.03;;;23.07;;
6143;SDS011;3103;49.492;8.474;2023-03-04T03:40:00;51.90;;;22.27;;
6143;SDS011;3103;49.492;8.474;2023-03-04T03:42:28;50.97;;;23.70;;
6143;SDS011;3103;49.492;8.474;2023-03-04T03:44:55;54.07;;;23.70;;
6143;SDS011;3103;49.492;8.474;2023-03-04T03:47:21;48.00;;;22.93;;
6143;SDS011;3103;49.492;8.474;2023-03-04T03:49:48;49.33;;;22.50;;
6143;SDS011;3103;49.492;8.474;2023-03-04T03:52:15;47.23;;;20.27;;
6143;SDS011;3103;49.492;8.474;2023-03-04T03:54:42;47.07;;;22.70;;
6143;SDS011;3103;49.492;8.474;2023-03-04T03:57:09;49.43;;;21.87;;
6143;SDS011;3103;49.492;8.474;2023-03-04T03:59:35;49.43;;;22.80;;
6143;SDS011;3103;49.492;8.474;2023-03-04T04:02:02;53.53;;;24.17;;
6143;SDS011;3103;49.492;8.474;2023-03-04T04:04:29;53.70;;;23.37;;
6143;SDS011;3103;49.492;8.474;2023-03-04T04:06:55;53.47;;;22.53;;
6143;SDS011;3103;49.492;8.474;2023-03-04T04:09:22;56.00;;;23.13;;
6143;SDS011;3103;49.492;8.474;2023-03-04T04:11:49;51.67;;;23.13;;
6143;SDS011;3103;49.492;8.474;2023-03-04T04:14:15;54.77;;;24.77;;
6143;SDS011;3103;49.492;8.474;2023-03-04T04:16:42;49.83;;;23.37;;
6143;SDS011;3103;49.492;8.474;2023-03-04T04:19:15;52.30;;;23.63;;
6143;SDS011;3103;49.492;8.474;2023-03-04T04:21:43;52.20;;;23.73;;
6143;SDS011;3103;49.492;8.474;2023-03-04T04:24:10;57.67;;;25.03;;
6143;SDS011;3103;49.492;8.474;2023-03-04T04:26:37;55.83;;;23.07;;
6143;SDS011;3103;49.492;8.474;2023-03-04T04:29:05;54.57;;;23.20;;
6143;SDS011;3103;49.492;8.474;2023-03-04T04:31:32;54.10;;;24.37;;
6143;SDS011;3103;49.492;8.474;2023-03-04T04:33:59;49.00;;;23.70;;
6143;SDS011;3103;49.492;8.474;2023-03-04T04:36:26;57.50;;;23.87;;
6143;SDS011;3103;49.492;8.474;2023-03-04T04:38:53;59.53;;;25.80;;
6143;SDS011;3103;49.492;8.474;2023-03-04T04:41:23;54.90;;;23.40;;
6143;SDS011;3103;49.492;8.474;2023-03-04T04:43:52;56.87;;;24.67;;
6143;SDS011;3103;49.492;8.474;2023-03-04T04:46:19;58.93;;;24.77;;
6143;SDS011;3103;49.492;8.474;2023-03-04T04:48:46;50.63;;;22.23;;
6143;SDS011;3103;49.492;8.474;2023-03-04T04:51:13;57.93;;;24.40;;
6143;SDS011;3103;49.492;8.474;2023-03-04T04:53:40;50.90;;;23.50;;
6143;SDS011;3103;49.492;8.474;2023-03-04T04:56:10;53.53;;;23.17;;
6143;SDS011;3103;49.492;8.474;2023-03-04T04:58:42;53.73;;;24.87;;
6143;SDS011;3103;49.492;8.474;2023-03-04T05:01:10;58.07;;;25.60;;
6143;SDS011;3103;49.492;8.474;2023-03-04T05:03:37;55.10;;;23.47;;
6143;SDS011;3103;49.492;8.474;2023-03-04T05:06:05;50.33;;;21.77;;
6143;SDS011;3103;49.492;8.474;2023-03-04T05:08:34;54.90;;;25.43;;
6143;SDS011;3103;49.492;8.474;2023-03-04T05:11:01;57.23;;;24.17;;
6143;SDS011;3103;49.492;8.474;2023-03-04T05:13:29;57.37;;;26.00;;
6143;SDS011;3103;49.492;8.474;2023-03-04T05:15:56;59.57;;;23.90;;
6143;SDS011;3103;49.492;8.474;2023-03-04T05:18:23;55.57;;;23.17;;
6143;SDS011;3103;49.492;8.474;2023-03-04T05:20:52;50.07;;;23.57;;
6143;SDS011;3103;49.492;8.474;2023-03-04T05:23:21;59.57;;;26.03;;
6143;SDS011;3103;49.492;8.474;2023-03-04T05:25:48;51.20;;;23.33;;
6143;SDS011;3103;49.492;8.474;2023-03-04T05:28:15;54.33;;;23.27;;
6143;SDS011;3103;49.492;8.474;2023-03-04T05:30:43;53.67;;;23.97;;
6143;SDS011;3103;49.492;8.474;2023-03-04T05:33:11;53.20;;;23.27;;
6143;SDS011;3103;49.492;8.474;2023-03-04T05:35:39;49.93;;;20.83;;
6143;SDS011;3103;49.492;8.474;2023-03-04T05:38:08;50.93;;;23.73;;
6143;SDS011;3103;49.492;8.474;2023-03-04T05:40:37;54.57;;;24.27;;
6143;SDS011;3103;49.492;8.474;2023-03-04T05:43:04;53.30;;;22.90;;
6143;SDS011;3103;49.492;8.474;2023-03-04T05:45:31;47.30;;;22.03;;
6143;SDS011;3103;49.492;8.474;2023-03-04T05:47:58;52.70;;;23.40;;
6143;SDS011;3103;49.492;8.474;2023-03-04T05:50:25;44.70;;;21.80;;
6143;SDS011;3103;49.492;8.474;2023-03-04T05:52:53;49.30;;;22.50;;
6143;SDS011;3103;49.492;8.474;2023-03-04T05:55:20;49.17;;;22.13;;
6143;SDS011;3103;49.492;8.474;2023-03-04T05:57:47;52.17;;;22.43;;
6143;SDS011;3103;49.492;8.474;2023-03-04T06:00:14;52.70;;;22.47;;
6143;SDS011;3103;49.492;8.474;2023-03-04T06:02:42;49.13;;;22.17;;
6143;SDS011;3103;49.492;8.474;2023-03-04T06:05:10;51.57;;;21.77;;
6143;SDS011;3103;49.492;8.474;2023-03-04T06:07:39;50.27;;;21.53;;
6143;SDS011;3103;49.492;8.474;2023-03-04T06:10:08;48.23;;;23.17;;
6143;SDS011;3103;49.492;8.474;2023-03-04T06:12:37;50.20;;;23.53;;
6143;SDS011;3103;49.492;8.474;2023-03-04T06:15:05;51.83;;;21.37;;
6143;SDS011;3103;49.492;8.474;2023-03-04T06:17:32;51.33;;;21.50;;
6143;SDS011;3103;49.492;8.474;2023-03-04T06:19:58;49.27;;;22.70;;
6143;SDS011;3103;49.492;8.474;2023-03-04T06:22:25;49.87;;;22.63;;
6143;SDS011;3103;49.492;8.474;2023-03-04T06:24:52;52.23;;;23.07;;
6143;SDS011;3103;49.492;8.474;2023-03-04T06:27:19;47.13;;;22.30;;
6143;SDS011;3103;49.492;8.474;2023-03-04T06:29:45;42.60;;;21.97;;
6143;SDS011;3103;49.492;8.474;2023-03-04T06:32:12;42.43;;;20.60;;
6143;SDS011;3103;49.492;8.474;2023-03-04T06:34:39;50.17;;;22.33;;
6143;SDS011;3103;49.492;8.474;2023-03-04T06:37:06;47.60;;;23.27;;
6143;SDS011;3103;49.492;8.474;2023-03-04T06:39:32;50.50;;;24.40;;
6143;SDS011;3103;49.492;8.474;2023-03-04T06:41:59;59.20;;;24.07;;
6143;SDS011;3103;49.492;8.474;2023-03-04T06:44:26;51.10;;;23.67;;
6143;SDS011;3103;49.492;8.474;2023-03-04T06:46:53;51.43;;;23.77;;
6143;SDS011;3103;49.492;8.474;2023-03-04T06:49:19;52.30;;;23.33;;
6143;SDS011;3103;49.492;8.474;2023-03-04T06:51:46;53.43;;;23.90;;
6143;SDS011;3103;49.492;8.474;2023-03-04T06:54:13;52.20;;;22.97;;
6143;SDS011;3103;49.492;8.474;2023-03-04T06:56:40;54.97;;;23.87;;
6143;SDS011;3103;49.492;8.474;2023-03-04T06:59:06;51.13;;;25.73;;
6143;SDS011;3103;49.492;8.474;2023-03-04T07:01:33;47.27;;;24.00;;
6143;SDS011;3103;49.492;8.474;2023-03-04T07:04:00;52.93;;;23.90;;
6143;SDS011;3103;49.492;8.474;2023-03-04T07:06:28;53.77;;;23.87;;
6143;SDS011;3103;49.492;8.474;2023-03-04T07:08:55;50.93;;;22.47;;
6143;SDS011;3103;49.492;8.474;2023-03-04T07:11:22;51.20;;;23.03;;
6143;SDS011;3103;49.492;8.474;2023-03-04T07:13:50;49.90;;;22.10;;
6143;SDS011;3103;49.492;8.474;2023-03-04T07:16:19;47.60;;;24.87;;
6143;SDS011;3103;49.492;8.474;2023-03-04T07:18:47;46.47;;;22.13;;
6143;SDS011;3103;49.492;8.474;2023-03-04T07:21:14;55.13;;;22.50;;
6143;SDS011;3103;49.492;8.474;2023-03-04T07:23:42;53.53;;;23.93;;
6143;SDS011;3103;49.492;8.474;2023-03-04T07:26:09;52.83;;;23.20;;
6143;SDS011;3103;49.492;8.474;2023-03-04T07:28:36;47.70;;;22.53;;
6143;SDS011;3103;49.492;8.474;2023-03-04T07:31:07;55.20;;;23.23;;
6143;SDS011;3103;49.492;8.474;2023-03-04T07:33:38;51.83;;;22.53;;
6143;SDS011;3103;49.492;8.474;2023-03-04T07:36:05;47.17;;;21.83;;
6143;SDS011;3103;49.492;8.474;2023-03-04T07:38:31;51.43;;;24.23;;
6143;SDS011;3103;49.492;8.474;2023-03-04T07:40:59;57.43;;;22.77;;
6143;SDS011;3103;49.492;8.474;2023-03-04T07:43:26;49.10;;;22.77;;
6143;SDS011;3103;49.492;8.474;2023-03-04T07:46:00;52.13;;;22.97;;
6143;SDS011;3103;49.492;8.474;2023-03-04T07:48:27;54.10;;;22.57;;
6143;SDS011;3103;49.492;8.474;2023-03-04T07:53:41;49.93;;;23.27;;
6143;SDS011;3103;49.492;8.474;2023-03-04T07:56:11;55.87;;;23.23;;
6143;SDS011;3103;49.492;8.474;2023-03-04T07:58:39;51.17;;;24.17;;
6143;SDS011;3103;49.492;8.474;2023-03-04T08:01:10;45.90;;;21.93;;
6143;SDS011;3103;49.492;8.474;2023-03-04T08:03:39;49.87;;;23.17;;
6143;SDS011;3103;49.492;8.474;2023-03-04T08:06:06;45.43;;;22.03;;
6143;SDS011;3103;49.492;8.474;2023-03-04T08:08:34;57.50;;;23.87;;
6143;SDS011;3103;49.492;8.474;2023-03-04T08:11:10;51.03;;;24.03;;
6143;SDS011;3103;49.492;8.474;2023-03-04T08:13:40;53.57;;;24.90;;
6143;SDS011;3103;49.492;8.474;2023-03-04T08:16:07;45.97;;;22.77;;
6143;SDS011;3103;49.492;8.474;2023-03-04T08:18:37;52.53;;;23.60;;
6143;SDS011;3103;49.492;8.474;2023-03-04T08:21:09;54.93;;;24.13;;
6143;SDS011;3103;49.492;8.474;2023-03-04T08:23:37;48.20;;;22.10;;
6143;SDS011;3103;49.492;8.474;2023-03-04T08:26:07;51.13;;;23.20;;
6143;SDS011;3103;49.492;8.474;2023-03-04T08:28:38;46.03;;;21.80;;
6143;SDS011;3103;49.492;8.474;2023-03-04T08:31:05;52.97;;;23.80;;
6143;SDS011;3103;49.492;8.474;2023-03-04T08:33:33;55.30;;;23.80;;
6143;SDS011;3103;49.492;8.474;2023-03-04T08:35:59;55.13;;;25.03;;
6143;SDS011;3103;49.492;8.474;2023-03-04T08:38:26;56.73;;;23.83;;
6143;SDS011;3103;49.492;8.474;2023-03-04T08:40:53;48.30;;;23.07;;
6143;SDS011;3103;49.492;8.474;2023-03-04T08:43:22;42.77;;;20.90;;
6143;SDS011;3103;49.492;8.474;2023-03-04T08:45:49;53.00;;;23.13;;
6143;SDS011;3103;49.492;8.474;2023-03-04T08:48:17;54.90;;;24.23;;
6143;SDS011;3103;49.492;8.474;2023-03-04T08:50:53;56.50;;;24.43;;
6143;SDS011;3103;49.492;8.474;2023-03-04T08:53:20;53.23;;;24.43;;
6143;SDS011;3103;49.492;8.474;2023-03-04T08:55:47;50.53;;;23.23;;
6143;SDS011;3103;49.492;8.474;2023-03-04T08:58:14;57.37;;;24.47;;
6143;SDS011;3103;49.492;8.474;2023-03-04T09:00:41;53.13;;;22.83;;
6143;SDS011;3103;49.492;8.474;2023-03-04T09:03:14;51.17;;;24.03;;
6143;SDS011;3103;49.492;8.474;2023-03-04T09:05:43;51.53;;;22.87;;
6143;SDS011;3103;49.492;8.474;2023-03-04T09:08:10;56.63;;;24.33;;
6143;SDS011;3103;49.492;8.474;2023-03-04T09:10:37;50.43;;;23.93;;
6143;SDS011;3103;49.492;8.474;2023-03-04T09:13:04;53.37;;;24.03;;
6143;SDS011;3103;49.492;8.474;2023-03-04T09:15:32;50.60;;;23.33;;
6143;SDS011;3103;49.492;8.474;2023-03-04T09:18:02;56.57;;;23.27;;
6143;SDS011;3103;49.492;8.474;2023-03-04T09:20:30;49.63;;;22.60;;
6143;SDS011;3103;49.492;8.474;2023-03-04T09:22:57;50.07;;;23.07;;
6143;SDS011;3103;49.492;8.474;2023-03-04T09:25:24;53.83;;;23.60;;
6143;SDS011;3103;49.492;8.474;2023-03-04T09:27:51;55.83;;;24.10;;
6143;SDS011;3103;49.492;8.474;2023-03-04T09:30:17;52.00;;;23.07;;
6143;SDS011;3103;49.492;8.474;2023-03-04T09:32:44;51.23;;;22.37;;
6143;SDS011;3103;49.492;8.474;2023-03-04T09:35:11;47.20;;;23.37;;
6143;SDS011;3103;49.492;8.474;2023-03-04T09:37:38;54.07;;;26.43;;
6143;SDS011;3103;49.492;8.474;2023-03-04T09:40:07;47.00;;;22.93;;
6143;SDS011;3103;49.492;8.474;2023-03-04T09:42:49;56.97;;;24.77;;
6143;SDS011;3103;49.492;8.474;2023-03-04T09:45:19;47.93;;;22.30;;
6143;SDS011;3103;49.492;8.474;2023-03-04T09:47:47;51.50;;;22.13;;
6143;SDS011;3103;49.492;8.474;2023-03-04T09:50:17;49.67;;;22.20;;
6143;SDS011;3103;49.492;8.474;2023-03-04T09:55:40;43.97;;;21.60;;
6143;SDS011;3103;49.492;8.474;2023-03-04T09:58:15;50.67;;;23.23;;
6143;SDS011;3103;49.492;8.474;2023-03-04T10:01:00;47.43;;;21.07;;
6143;SDS011;3103;49.492;8.474;2023-03-04T10:03:42;42.23;;;22.57;;
6143;SDS011;3103;49.492;8.474;2023-03-04T10:06:12;42.50;;;21.70;;
6143;SDS011;3103;49.492;8.474;2023-03-04T10:08:48;44.73;;;20.23;;
6143;SDS011;3103;49.492;8.474;2023-03-04T10:11:23;49.07;;;22.77;;
6143;SDS011;3103;49.492;8.474;2023-03-04T10:19:42;44.23;;;21.50;;
6143;SDS011;3103;49.492;8.474;2023-03-04T10:22:22;42.97;;;21.47;;
6143;SDS011;3103;49.492;8.474;2023-03-04T10:24:55;40.20;;;19.83;;
6143;SDS011;3103;49.492;8.474;2023-03-04T10:27:23;52.70;;;24.80;;
6143;SDS011;3103;49.492;8.474;2023-03-04T10:29:51;49.80;;;25.63;;
6143;SDS011;3103;49.492;8.474;2023-03-04T10:32:19;52.10;;;25.63;;
6143;SDS011;3103;49.492;8.474;2023-03-04T10:34:46;53.00;;;25.90;;
6143;SDS011;3103;49.492;8.474;2023-03-04T10:37:13;45.97;;;23.37;;
6143;SDS011;3103;49.492;8.474;2023-03-04T10:39:43;44.10;;;20.70;;
6143;SDS011;3103;49.492;8.474;2023-03-04T10:44:42;41.30;;;22.03;;
6143;SDS011;3103;49.492;8.474;2023-03-04T10:47:17;44.50;;;21.50;;
6143;SDS011;3103;49.492;8.474;2023-03-04T10:49:51;39.57;;;20.47;;
6143;SDS011;3103;49.492;8.474;2023-03-04T10:54:57;44.03;;;20.77;;
6143;SDS011;3103;49.492;8.474;2023-03-04T10:57:32;42.40;;;20.47;;
6143;SDS011;3103;49.492;8.474;2023-03-04T11:00:17;38.83;;;19.43;;
6143;SDS011;3103;49.492;8.474;2023-03-04T11:02:51;38.47;;;17.83;;
6143;SDS011;3103;49.492;8.474;2023-03-04T11:05:22;39.77;;;19.27;;
6143;SDS011;3103;49.492;8.474;2023-03-04T11:07:54;42.37;;;20.30;;
6143;SDS011;3103;49.492;8.474;2023-03-04T11:13:12;39.87;;;19.60;;
6143;SDS011;3103;49.492;8.474;2023-03-04T11:15:54;36.00;;;18.80;;
6143;SDS011;3103;49.492;8.474;2023-03-04T11:18:42;36.93;;;18.37;;
6143;SDS011;3103;49.492;8.474;2023-03-04T11:21:16;39.00;;;18.43;;
6143;SDS011;3103;49.492;8.474;2023-03-04T11:23:49;36.07;;;19.00;;
6143;SDS011;3103;49.492;8.474;2023-03-04T11:26:55;34.23;;;18.27;;
6143;SDS011;3103;49.492;8.474;2023-03-04T11:31:51;33.80;;;16.97;;
6143;SDS011;3103;49.492;8.474;2023-03-04T11:37:36;32.23;;;15.93;;
6143;SDS011;3103;49.492;8.474;2023-03-04T11:42:52;32.23;;;15.47;;
6143;SDS011;3103;49.492;8.474;2023-03-04T11:48:16;27.03;;;14.83;;
6143;SDS011;3103;49.492;8.474;2023-03-04T11:51:01;29.43;;;15.00;;
6143;SDS011;3103;49.492;8.474;2023-03-04T11:54:00;28.20;;;14.87;;
6143;SDS011;3103;49.492;8.474;2023-03-04T12:02:12;32.17;;;14.63;;
6143;SDS011;3103;49.492;8.474;2023-03-04T12:08:04;27.47;;;13.33;;
6143;SDS011;3103;49.492;8.474;2023-03-04T12:10:54;25.67;;;13.47;;
6143;SDS011;3103;49.492;8.474;2023-03-04T12:16:37;37.17;;;16.73;;
6143;SDS011;3103;49.492;8.474;2023-03-04T12:19:23;26.63;;;13.80;;
6143;SDS011;3103;49.492;8.474;2023-03-04T12:21:58;24.60;;;14.23;;
6143;SDS011;3103;49.492;8.474;2023-03-04T12:24:46;29.20;;;13.23;;
6143;SDS011;3103;49.492;8.474;2023-03-04T12:36:05;26.63;;;13.70;;
6143;SDS011;3103;49.492;8.474;2023-03-04T12:39:07;24.40;;;13.87;;
6143;SDS011;3103;49.492;8.474;2023-03-04T12:45:00;28.23;;;15.13;;
6143;SDS011;3103;49.492;8.474;2023-03-04T12:59:03;61.73;;;32.73;;
6143;SDS011;3103;49.492;8.474;2023-03-04T13:01:35;26.97;;;11.87;;
6143;SDS011;3103;49.492;8.474;2023-03-04T13:04:15;20.83;;;10.13;;
6143;SDS011;3103;49.492;8.474;2023-03-04T13:07:28;21.63;;;10.63;;
6143;SDS011;3103;49.492;8.474;2023-03-04T13:12:55;18.47;;;9.37;;
6143;SDS011;3103;49.492;8.474;2023-03-04T13:17:54;18.87;;;9.17;;
6143;SDS011;3103;49.492;8.474;2023-03-04T13:20:40;19.67;;;9.00;;
6143;SDS011;3103;49.492;8.474;2023-03-04T13:25:38;24.87;;;8.87;;
6143;SDS011;3103;49.492;8.474;2023-03-04T13:35:46;22.33;;;9.27;;
6143;SDS011;3103;49.492;8.474;2023-03-04T13:43:52;18.07;;;10.37;;
6143;SDS011;3103;49.492;8.474;2023-03-04T13:51:26;27.20;;;10.77;;
6143;SDS011;3103;49.492;8.474;2023-03-04T13:56:32;19.57;;;10.73;;
6143;SDS011;3103;49.492;8.474;2023-03-04T14:01:33;23.67;;;10.53;;
6143;SDS011;3103;49.492;8.474;2023-03-04T14:04:18;21.27;;;10.37;;
6143;SDS011;3103;49.492;8.474;2023-03-04T14:06:48;22.57;;;12.63;;
6143;SDS011;3103;49.492;8.474;2023-03-04T14:09:19;25.67;;;13.93;;
6143;SDS011;3103;49.492;8.474;2023-03-04T14:11:47;18.70;;;9.03;;
6143;SDS011;3103;49.492;8.474;2023-03-04T14:14:20;28.33;;;10.47;;
6143;SDS011;3103;49.492;8.474;2023-03-04T14:16:58;22.37;;;9.33;;
6143;SDS011;3103;49.492;8.474;2023-03-04T14:19:28;23.40;;;10.20;;
6143;SDS011;3103;49.492;8.474;2023-03-04T14:21:57;16.80;;;9.33;;
6143;SDS011;3103;49.492;8.474;2023-03-04T14:24:25;18.83;;;9.63;;
6143;SDS011;3103;49.492;8.474;2023-03-04T14:27:03;15.73;;;9.03;;
6143;SDS011;3103;49.492;8.474;2023-03-04T14:29:36;16.97;;;8.37;;
6143;SDS011;3103;49.492;8.474;2023-03-04T14:32:04;20.17;;;9.30;;
6143;SDS011;3103;49.492;8.474;2023-03-04T14:34:33;15.87;;;7.63;;
6143;SDS011;3103;49.492;8.474;2023-03-04T14:37:14;18.80;;;8.27;;
6143;SDS011;3103;49.492;8.474;2023-03-04T14:39:45;20.03;;;8.70;;
6143;SDS011;3103;49.492;8.474;2023-03-04T14:42:15;16.53;;;7.10;;
6143;SDS011;3103;49.492;8.474;2023-03-04T14:44:45;15.83;;;7.83;;
6143;SDS011;3103;49.492;8.474;2023-03-04T14:47:17;11.20;;;6.67;;
6143;SDS011;3103;49.492;8.474;2023-03-04T14:49:48;12.90;;;6.60;;
6143;SDS011;3103;49.492;8.474;2023-03-04T14:55:16;12.97;;;6.57;;
6143;SDS011;3103;49.492;8.474;2023-03-04T14:57:48;16.87;;;7.57;;
6143;SDS011;3103;49.492;8.474;2023-03-04T15:00:26;15.97;;;7.40;;
6143;SDS011;3103;49.492;8.474;2023-03-04T15:05:47;13.17;;;7.13;;
6143;SDS011;3103;49.492;8.474;2023-03-04T15:08:21;13.33;;;6.87;;
6143;SDS011;3103;49.492;8.474;2023-03-04T15:10:54;12.07;;;6.87;;
6143;SDS011;3103;49.492;8.474;2023-03-04T15:16:10;15.80;;;8.03;;
6143;SDS011;3103;49.492;8.474;2023-03-04T15:18:38;16.97;;;7.43;;
6143;SDS011;3103;49.492;8.474;2023-03-04T15:23:46;20.90;;;9.73;;
6143;SDS011;3103;49.492;8.474;2023-03-04T15:26:12;14.53;;;7.30;;
6143;SDS011;3103;49.492;8.474;2023-03-04T15:28:40;14.30;;;7.40;;
6143;SDS011;3103;49.492;8.474;2023-03-04T15:31:21;14.70;;;5.80;;
6143;SDS011;3103;49.492;8.474;2023-03-04T15:33:51;13.83;;;6.70;;
6143;SDS011;3103;49.492;8.474;2023-03-04T15:36:19;12.43;;;6.33;;
6143;SDS011;3103;49.492;8.474;2023-03-04T15:38:48;13.23;;;6.93;;
6143;SDS011;3103;49.492;8.474;2023-03-04T15:41:23;20.87;;;9.77;;
6143;SDS011;3103;49.492;8.474;2023-03-04T15:43:52;12.57;;;7.40;;
6143;SDS011;3103;49.492;8.474;2023-03-04T15:46:19;12.27;;;6.77;;
6143;SDS011;3103;49.492;8.474;2023-03-04T15:48:47;28.00;;;14.13;;
6143;SDS011;3103;49.492;8.474;2023-03-04T15:51:14;16.93;;;8.33;;
6143;SDS011;3103;49.492;8.474;2023-03-04T15:53:46;15.20;;;7.70;;
6143;SDS011;3103;49.492;8.474;2023-03-04T15:56:16;14.70;;;7.33;;
6143;SDS011;3103;49.492;8.474;2023-03-04T15:58:53;12.20;;;6.60;;
6143;SDS011;3103;49.492;8.474;2023-03-04T16:01:21;12.57;;;6.30;;
6143;SDS011;3103;49.492;8.474;2023-03-04T16:03:49;15.03;;;8.17;;
6143;SDS011;3103;49.492;8.474;2023-03-04T16:06:19;16.77;;;8.50;;
6143;SDS011;3103;49.492;8.474;2023-03-04T16:08:49;27.80;;;12.83;;
6143;SDS011;3103;49.492;8.474;2023-03-04T16:11:18;29.50;;;14.73;;
6143;SDS011;3103;49.492;8.474;2023-03-04T16:13:47;28.57;;;12.60;;
6143;SDS011;3103;49.492;8.474;2023-03-04T16:16:14;26.40;;;12.30;;
6143;SDS011;3103;49.492;8.474;2023-03-04T16:18:42;21.60;;;11.07;;
6143;SDS011;3103;49.492;8.474;2023-03-04T16:21:13;18.07;;;9.00;;
6143;SDS011;3103;49.492;8.474;2023-03-04T16:23:43;21.87;;;10.03;;
6143;SDS011;3103;49.492;8.474;2023-03-04T16:26:13;20.70;;;9.60;;
6143;SDS011;3103;49.492;8.474;2023-03-04T16:28:51;26.77;;;10.97;;
6143;SDS011;3103;49.492;8.474;2023-03-04T16:31:19;34.77;;;15.13;;
6143;SDS011;3103;49.492;8.474;2023-03-04T16:33:47;25.37;;;11.77;;
6143;SDS011;3103;49.492;8.474;2023-03-04T16:36:21;22.47;;;10.60;;
6143;SDS011;3103;49.492;8.474;2023-03-04T16:38:50;22.00;;;10.07;;
6143;SDS011;3103;49.492;8.474;2023-03-04T16:41:21;33.67;;;15.83;;
6143;SDS011;3103;49.492;8.474;2023-03-04T16:43:53;34.07;;;14.47;;
6143;SDS011;3103;49.492;8.474;2023-03-04T16:46:22;28.50;;;13.43;;
6143;SDS011;3103;49.492;8.474;2023-03-04T16:48:49;24.87;;;10.83;;
6143;SDS011;3103;49.492;8.474;2023-03-04T16:51:17;21.40;;;10.47;;
6143;SDS011;3103;49.492;8.474;2023-03-04T16:53:46;26.33;;;12.10;;
6143;SDS011;3103;49.492;8.474;2023-03-04T16:56:15;27.87;;;12.03;;
6143;SDS011;3103;49.492;8.474;2023-03-04T16:58:42;23.37;;;10.43;;